sensor_id;sensor_type;location;lat;lon;timestamp;P1;durP1;ratioP1;P2;durP2;ratioP2
20758;SDS011;10539;53.686;9.158;2022-12-18T00:00:46;38.47;;;16.40;;
20758;SDS011;10539;53.686;9.158;2022-12-18T00:03:13;28.60;;;12.87;;
20758;SDS011;10539;53.686;9.158;2022-12-18T00:05:46;37.00;;;17.13;;
20758;SDS011;10539;53.686;9.158;2022-12-18T00:08:13;37.57;;;14.13;;
20758;SDS011;10539;53.686;9.158;2022-12-18T00:10:39;33.03;;;16.10;;
20758;SDS011;10539;53.686;9.158;2022-12-18T00:13:04;43.03;;;17.83;;
20758;SDS011;10539;53.686;9.158;2022-12-18T00:15:30;32.63;;;14.40;;
20758;SDS011;10539;53.686;9.158;2022-12-18T00:17:59;31.37;;;14.03;;
20758;SDS011;10539;53.686;9.158;2022-12-18T00:20:25;30.57;;;13.67;;
20758;SDS011;10539;53.686;9.158;2022-12-18T00:22:53;17.37;;;7.60;;
20758;SDS011;10539;53.686;9.158;2022-12-18T00:25:19;33.20;;;15.63;;
20758;SDS011;10539;53.686;9.158;2022-12-18T00:27:46;43.53;;;17.97;;
20758;SDS011;10539;53.686;9.158;2022-12-18T00:30:11;32.07;;;15.03;;
20758;SDS011;10539;53.686;9.158;2022-12-18T00:32:37;42.20;;;18.53;;
20758;SDS011;10539;53.686;9.158;2022-12-18T00:35:03;35.20;;;16.47;;
20758;SDS011;10539;53.686;9.158;2022-12-18T00:37:30;42.10;;;19.80;;
20758;SDS011;10539;53.686;9.158;2022-12-18T00:39:56;41.27;;;17.13;;
20758;SDS011;10539;53.686;9.158;2022-12-18T00:42:22;34.03;;;16.50;;
20758;SDS011;10539;53.686;9.158;2022-12-18T00:45:06;20.33;;;10.53;;
20758;SDS011;10539;53.686;9.158;2022-12-18T00:47:32;32.50;;;14.43;;
20758;SDS011;10539;53.686;9.158;2022-12-18T00:49:58;45.10;;;19.20;;
20758;SDS011;10539;53.686;9.158;2022-12-18T00:52:23;34.80;;;17.03;;
20758;SDS011;10539;53.686;9.158;2022-12-18T00:54:49;38.17;;;18.20;;
20758;SDS011;10539;53.686;9.158;2022-12-18T00:57:15;36.87;;;17.20;;
20758;SDS011;10539;53.686;9.158;2022-12-18T00:59:40;17.70;;;7.63;;
20758;SDS011;10539;53.686;9.158;2022-12-18T01:02:06;33.67;;;14.73;;
20758;SDS011;10539;53.686;9.158;2022-12-18T01:04:32;32.77;;;15.93;;
20758;SDS011;10539;53.686;9.158;2022-12-18T01:06:58;31.70;;;13.27;;
20758;SDS011;10539;53.686;9.158;2022-12-18T01:09:24;38.83;;;18.27;;
20758;SDS011;10539;53.686;9.158;2022-12-18T01:11:50;32.47;;;14.53;;
20758;SDS011;10539;53.686;9.158;2022-12-18T01:14:16;39.53;;;17.47;;
20758;SDS011;10539;53.686;9.158;2022-12-18T01:16:41;21.03;;;10.53;;
20758;SDS011;10539;53.686;9.158;2022-12-18T01:19:07;38.07;;;17.63;;
20758;SDS011;10539;53.686;9.158;2022-12-18T01:21:32;44.90;;;17.57;;
20758;SDS011;10539;53.686;9.158;2022-12-18T01:23:58;38.43;;;16.43;;
20758;SDS011;10539;53.686;9.158;2022-12-18T01:26:24;42.43;;;17.60;;
20758;SDS011;10539;53.686;9.158;2022-12-18T01:28:51;35.90;;;16.87;;
20758;SDS011;10539;53.686;9.158;2022-12-18T01:31:18;41.37;;;20.07;;
20758;SDS011;10539;53.686;9.158;2022-12-18T01:33:45;26.47;;;13.10;;
20758;SDS011;10539;53.686;9.158;2022-12-18T01:36:18;27.80;;;14.10;;
20758;SDS011;10539;53.686;9.158;2022-12-18T01:38:49;18.80;;;9.23;;
20758;SDS011;10539;53.686;9.158;2022-12-18T01:41:16;31.83;;;15.93;;
20758;SDS011;10539;53.686;9.158;2022-12-18T01:43:54;37.87;;;16.20;;
20758;SDS011;10539;53.686;9.158;2022-12-18T01:46:24;29.70;;;12.97;;
20758;SDS011;10539;53.686;9.158;2022-12-18T01:48:52;37.30;;;17.03;;
20758;SDS011;10539;53.686;9.158;2022-12-18T01:51:21;38.07;;;18.03;;
20758;SDS011;10539;53.686;9.158;2022-12-18T01:53:48;28.53;;;12.17;;
20758;SDS011;10539;53.686;9.158;2022-12-18T01:56:14;29.63;;;14.67;;
20758;SDS011;10539;53.686;9.158;2022-12-18T01:58:50;36.57;;;17.23;;
20758;SDS011;10539;53.686;9.158;2022-12-18T02:01:28;27.03;;;14.20;;
20758;SDS011;10539;53.686;9.158;2022-12-18T02:03:55;37.90;;;18.03;;
20758;SDS011;10539;53.686;9.158;2022-12-18T02:06:40;33.97;;;15.47;;
20758;SDS011;10539;53.686;9.158;2022-12-18T02:09:15;39.77;;;16.77;;
20758;SDS011;10539;53.686;9.158;2022-12-18T02:14:24;39.67;;;17.03;;
20758;SDS011;10539;53.686;9.158;2022-12-18T02:28:41;40.07;;;16.53;;
20758;SDS011;10539;53.686;9.158;2022-12-18T02:31:18;34.77;;;15.70;;
20758;SDS011;10539;53.686;9.158;2022-12-18T02:33:48;32.73;;;14.83;;
20758;SDS011;10539;53.686;9.158;2022-12-18T02:36:15;42.67;;;18.07;;
20758;SDS011;10539;53.686;9.158;2022-12-18T02:38:42;37.87;;;16.77;;
20758;SDS011;10539;53.686;9.158;2022-12-18T02:41:10;40.17;;;17.00;;
20758;SDS011;10539;53.686;9.158;2022-12-18T02:43:38;38.63;;;15.90;;
20758;SDS011;10539;53.686;9.158;2022-12-18T02:49:02;32.03;;;15.23;;
20758;SDS011;10539;53.686;9.158;2022-12-18T02:55:11;31.67;;;14.93;;
20758;SDS011;10539;53.686;9.158;2022-12-18T02:57:56;37.27;;;15.47;;
20758;SDS011;10539;53.686;9.158;2022-12-18T03:00:29;33.10;;;13.83;;
20758;SDS011;10539;53.686;9.158;2022-12-18T03:03:19;39.17;;;16.40;;
20758;SDS011;10539;53.686;9.158;2022-12-18T03:05:56;41.87;;;17.33;;
20758;SDS011;10539;53.686;9.158;2022-12-18T03:08:27;33.27;;;15.23;;
20758;SDS011;10539;53.686;9.158;2022-12-18T03:11:00;14.57;;;7.03;;
20758;SDS011;10539;53.686;9.158;2022-12-18T03:13:36;40.80;;;15.60;;
20758;SDS011;10539;53.686;9.158;2022-12-18T03:16:12;34.63;;;12.33;;
20758;SDS011;10539;53.686;9.158;2022-12-18T03:18:44;24.47;;;11.20;;
20758;SDS011;10539;53.686;9.158;2022-12-18T03:21:12;36.07;;;15.77;;
20758;SDS011;10539;53.686;9.158;2022-12-18T03:23:42;30.03;;;14.50;;
20758;SDS011;10539;53.686;9.158;2022-12-18T03:26:12;30.10;;;14.83;;
20758;SDS011;10539;53.686;9.158;2022-12-18T03:28:44;32.13;;;14.33;;
20758;SDS011;10539;53.686;9.158;2022-12-18T03:31:14;31.53;;;13.60;;
20758;SDS011;10539;53.686;9.158;2022-12-18T03:33:52;33.87;;;15.07;;
20758;SDS011;10539;53.686;9.158;2022-12-18T03:36:19;32.57;;;14.53;;
20758;SDS011;10539;53.686;9.158;2022-12-18T03:38:45;29.17;;;14.53;;
20758;SDS011;10539;53.686;9.158;2022-12-18T03:43:43;30.43;;;13.40;;
20758;SDS011;10539;53.686;9.158;2022-12-18T03:49:11;28.67;;;14.13;;
20758;SDS011;10539;53.686;9.158;2022-12-18T03:51:52;14.17;;;7.90;;
20758;SDS011;10539;53.686;9.158;2022-12-18T03:54:29;19.47;;;8.67;;
20758;SDS011;10539;53.686;9.158;2022-12-18T03:57:01;35.63;;;13.23;;
20758;SDS011;10539;53.686;9.158;2022-12-18T03:59:34;20.37;;;8.93;;
20758;SDS011;10539;53.686;9.158;2022-12-18T04:02:02;27.17;;;12.07;;
20758;SDS011;10539;53.686;9.158;2022-12-18T04:04:31;25.53;;;10.53;;
20758;SDS011;10539;53.686;9.158;2022-12-18T04:07:01;24.23;;;10.07;;
20758;SDS011;10539;53.686;9.158;2022-12-18T04:09:28;25.67;;;12.20;;
20758;SDS011;10539;53.686;9.158;2022-12-18T04:11:56;20.90;;;10.07;;
20758;SDS011;10539;53.686;9.158;2022-12-18T04:14:22;29.23;;;12.93;;
20758;SDS011;10539;53.686;9.158;2022-12-18T04:16:48;26.23;;;10.97;;
20758;SDS011;10539;53.686;9.158;2022-12-18T04:19:13;17.27;;;8.70;;
20758;SDS011;10539;53.686;9.158;2022-12-18T04:21:39;28.60;;;11.03;;
20758;SDS011;10539;53.686;9.158;2022-12-18T04:24:05;27.53;;;12.97;;
20758;SDS011;10539;53.686;9.158;2022-12-18T04:26:31;14.57;;;7.57;;
20758;SDS011;10539;53.686;9.158;2022-12-18T04:28:56;23.50;;;10.50;;
20758;SDS011;10539;53.686;9.158;2022-12-18T04:31:22;17.57;;;9.20;;
20758;SDS011;10539;53.686;9.158;2022-12-18T04:33:48;25.07;;;9.80;;
20758;SDS011;10539;53.686;9.158;2022-12-18T04:36:14;16.33;;;7.13;;
20758;SDS011;10539;53.686;9.158;2022-12-18T04:38:40;30.20;;;12.20;;
20758;SDS011;10539;53.686;9.158;2022-12-18T04:41:05;21.43;;;9.47;;
20758;SDS011;10539;53.686;9.158;2022-12-18T04:43:31;24.07;;;11.27;;
20758;SDS011;10539;53.686;9.158;2022-12-18T04:46:04;25.30;;;12.10;;
20758;SDS011;10539;53.686;9.158;2022-12-18T04:48:31;24.40;;;10.10;;
20758;SDS011;10539;53.686;9.158;2022-12-18T04:50:58;24.40;;;11.23;;
20758;SDS011;10539;53.686;9.158;2022-12-18T04:53:24;20.37;;;9.10;;
20758;SDS011;10539;53.686;9.158;2022-12-18T04:55:50;26.13;;;10.33;;
20758;SDS011;10539;53.686;9.158;2022-12-18T04:58:16;26.77;;;12.07;;
20758;SDS011;10539;53.686;9.158;2022-12-18T05:00:42;29.83;;;12.80;;
20758;SDS011;10539;53.686;9.158;2022-12-18T05:03:08;23.37;;;10.93;;
20758;SDS011;10539;53.686;9.158;2022-12-18T05:05:34;17.67;;;8.60;;
20758;SDS011;10539;53.686;9.158;2022-12-18T05:08:00;17.60;;;8.33;;
20758;SDS011;10539;53.686;9.158;2022-12-18T05:10:26;23.07;;;10.93;;
20758;SDS011;10539;53.686;9.158;2022-12-18T05:12:52;21.23;;;8.53;;
20758;SDS011;10539;53.686;9.158;2022-12-18T05:15:33;19.83;;;9.30;;
20758;SDS011;10539;53.686;9.158;2022-12-18T05:17:59;18.50;;;7.77;;
20758;SDS011;10539;53.686;9.158;2022-12-18T05:20:29;18.83;;;8.70;;
20758;SDS011;10539;53.686;9.158;2022-12-18T05:22:55;16.43;;;6.27;;
20758;SDS011;10539;53.686;9.158;2022-12-18T05:25:21;19.27;;;8.87;;
20758;SDS011;10539;53.686;9.158;2022-12-18T05:27:47;18.93;;;7.47;;
20758;SDS011;10539;53.686;9.158;2022-12-18T05:30:13;20.77;;;9.00;;
20758;SDS011;10539;53.686;9.158;2022-12-18T05:32:40;14.77;;;7.30;;
20758;SDS011;10539;53.686;9.158;2022-12-18T05:35:07;22.13;;;8.80;;
20758;SDS011;10539;53.686;9.158;2022-12-18T05:37:34;14.03;;;4.43;;
20758;SDS011;10539;53.686;9.158;2022-12-18T05:40:00;16.30;;;7.50;;
20758;SDS011;10539;53.686;9.158;2022-12-18T05:42:27;16.87;;;7.40;;
20758;SDS011;10539;53.686;9.158;2022-12-18T05:44:53;14.27;;;6.43;;
20758;SDS011;10539;53.686;9.158;2022-12-18T05:47:18;15.90;;;6.13;;
20758;SDS011;10539;53.686;9.158;2022-12-18T05:49:45;24.63;;;8.67;;
20758;SDS011;10539;53.686;9.158;2022-12-18T05:52:11;11.03;;;5.93;;
20758;SDS011;10539;53.686;9.158;2022-12-18T05:54:37;15.43;;;7.87;;
20758;SDS011;10539;53.686;9.158;2022-12-18T05:57:04;18.50;;;9.13;;
20758;SDS011;10539;53.686;9.158;2022-12-18T05:59:33;15.37;;;7.33;;
20758;SDS011;10539;53.686;9.158;2022-12-18T06:01:59;30.43;;;5.30;;
20758;SDS011;10539;53.686;9.158;2022-12-18T06:04:26;22.00;;;8.00;;
20758;SDS011;10539;53.686;9.158;2022-12-18T06:06:55;23.40;;;8.60;;
20758;SDS011;10539;53.686;9.158;2022-12-18T06:09:22;21.23;;;8.87;;
20758;SDS011;10539;53.686;9.158;2022-12-18T06:11:50;14.03;;;7.03;;
20758;SDS011;10539;53.686;9.158;2022-12-18T06:14:17;16.20;;;7.60;;
20758;SDS011;10539;53.686;9.158;2022-12-18T06:16:45;17.20;;;9.07;;
20758;SDS011;10539;53.686;9.158;2022-12-18T06:19:14;10.80;;;5.20;;
20758;SDS011;10539;53.686;9.158;2022-12-18T06:21:41;19.27;;;7.73;;
20758;SDS011;10539;53.686;9.158;2022-12-18T06:24:07;14.37;;;7.13;;
20758;SDS011;10539;53.686;9.158;2022-12-18T06:26:33;16.00;;;7.50;;
20758;SDS011;10539;53.686;9.158;2022-12-18T06:28:59;9.07;;;4.47;;
20758;SDS011;10539;53.686;9.158;2022-12-18T06:31:25;8.13;;;4.87;;
20758;SDS011;10539;53.686;9.158;2022-12-18T06:33:51;9.60;;;5.20;;
20758;SDS011;10539;53.686;9.158;2022-12-18T06:36:18;14.47;;;7.27;;
20758;SDS011;10539;53.686;9.158;2022-12-18T06:38:44;13.93;;;6.63;;
20758;SDS011;10539;53.686;9.158;2022-12-18T06:41:11;16.60;;;8.70;;
20758;SDS011;10539;53.686;9.158;2022-12-18T06:43:39;10.90;;;5.23;;
20758;SDS011;10539;53.686;9.158;2022-12-18T06:46:05;15.70;;;7.77;;
20758;SDS011;10539;53.686;9.158;2022-12-18T06:48:31;23.37;;;8.50;;
20758;SDS011;10539;53.686;9.158;2022-12-18T06:50:57;17.97;;;7.80;;
20758;SDS011;10539;53.686;9.158;2022-12-18T06:53:23;10.63;;;4.77;;
20758;SDS011;10539;53.686;9.158;2022-12-18T06:55:49;11.70;;;6.03;;
20758;SDS011;10539;53.686;9.158;2022-12-18T06:58:15;13.83;;;7.07;;
20758;SDS011;10539;53.686;9.158;2022-12-18T07:00:41;10.93;;;5.87;;
20758;SDS011;10539;53.686;9.158;2022-12-18T07:03:06;17.93;;;8.57;;
20758;SDS011;10539;53.686;9.158;2022-12-18T07:05:33;18.30;;;9.10;;
20758;SDS011;10539;53.686;9.158;2022-12-18T07:07:58;13.50;;;5.00;;
20758;SDS011;10539;53.686;9.158;2022-12-18T07:10:24;17.77;;;8.17;;
20758;SDS011;10539;53.686;9.158;2022-12-18T07:12:50;11.60;;;6.10;;
20758;SDS011;10539;53.686;9.158;2022-12-18T07:15:16;19.20;;;8.83;;
20758;SDS011;10539;53.686;9.158;2022-12-18T07:17:42;9.53;;;4.03;;
20758;SDS011;10539;53.686;9.158;2022-12-18T07:20:08;11.73;;;5.50;;
20758;SDS011;10539;53.686;9.158;2022-12-18T07:22:34;20.57;;;7.57;;
20758;SDS011;10539;53.686;9.158;2022-12-18T07:25:00;14.33;;;6.73;;
20758;SDS011;10539;53.686;9.158;2022-12-18T07:27:26;18.07;;;7.97;;
20758;SDS011;10539;53.686;9.158;2022-12-18T07:29:51;17.53;;;7.87;;
20758;SDS011;10539;53.686;9.158;2022-12-18T07:32:17;13.60;;;7.53;;
20758;SDS011;10539;53.686;9.158;2022-12-18T07:34:43;18.13;;;8.47;;
20758;SDS011;10539;53.686;9.158;2022-12-18T07:37:08;12.97;;;6.33;;
20758;SDS011;10539;53.686;9.158;2022-12-18T07:39:34;14.33;;;6.73;;
20758;SDS011;10539;53.686;9.158;2022-12-18T07:42:00;15.87;;;5.80;;
20758;SDS011;10539;53.686;9.158;2022-12-18T07:44:58;17.40;;;8.23;;
20758;SDS011;10539;53.686;9.158;2022-12-18T07:47:25;16.10;;;8.33;;
20758;SDS011;10539;53.686;9.158;2022-12-18T07:49:51;17.67;;;7.93;;
20758;SDS011;10539;53.686;9.158;2022-12-18T07:52:17;17.93;;;8.57;;
20758;SDS011;10539;53.686;9.158;2022-12-18T07:54:43;15.87;;;6.60;;
20758;SDS011;10539;53.686;9.158;2022-12-18T07:57:08;17.03;;;8.27;;
20758;SDS011;10539;53.686;9.158;2022-12-18T07:59:34;19.60;;;6.50;;
20758;SDS011;10539;53.686;9.158;2022-12-18T08:02:00;16.00;;;7.83;;
20758;SDS011;10539;53.686;9.158;2022-12-18T08:04:26;13.43;;;6.43;;
20758;SDS011;10539;53.686;9.158;2022-12-18T08:06:52;14.10;;;6.97;;
20758;SDS011;10539;53.686;9.158;2022-12-18T08:09:22;14.13;;;7.43;;
20758;SDS011;10539;53.686;9.158;2022-12-18T08:11:47;19.40;;;8.73;;
20758;SDS011;10539;53.686;9.158;2022-12-18T08:14:14;29.97;;;7.37;;
20758;SDS011;10539;53.686;9.158;2022-12-18T08:16:39;12.67;;;6.17;;
20758;SDS011;10539;53.686;9.158;2022-12-18T08:19:05;15.33;;;7.43;;
20758;SDS011;10539;53.686;9.158;2022-12-18T08:21:31;18.23;;;8.17;;
20758;SDS011;10539;53.686;9.158;2022-12-18T08:23:58;11.90;;;6.60;;
20758;SDS011;10539;53.686;9.158;2022-12-18T08:26:25;15.17;;;8.87;;
20758;SDS011;10539;53.686;9.158;2022-12-18T08:28:56;15.93;;;8.03;;
20758;SDS011;10539;53.686;9.158;2022-12-18T08:31:24;16.30;;;7.37;;
20758;SDS011;10539;53.686;9.158;2022-12-18T08:33:51;20.67;;;7.73;;
20758;SDS011;10539;53.686;9.158;2022-12-18T08:36:18;12.57;;;6.43;;
20758;SDS011;10539;53.686;9.158;2022-12-18T08:38:44;14.70;;;6.87;;
20758;SDS011;10539;53.686;9.158;2022-12-18T08:41:11;14.47;;;7.87;;
20758;SDS011;10539;53.686;9.158;2022-12-18T08:43:39;13.47;;;5.87;;
20758;SDS011;10539;53.686;9.158;2022-12-18T08:46:24;15.47;;;7.30;;
20758;SDS011;10539;53.686;9.158;2022-12-18T08:48:51;15.97;;;7.77;;
20758;SDS011;10539;53.686;9.158;2022-12-18T08:51:18;16.87;;;8.57;;
20758;SDS011;10539;53.686;9.158;2022-12-18T08:53:45;17.53;;;7.87;;
20758;SDS011;10539;53.686;9.158;2022-12-18T08:56:11;17.23;;;7.70;;
20758;SDS011;10539;53.686;9.158;2022-12-18T08:58:38;17.23;;;7.83;;
20758;SDS011;10539;53.686;9.158;2022-12-18T09:01:04;16.00;;;7.90;;
20758;SDS011;10539;53.686;9.158;2022-12-18T09:03:32;23.73;;;7.97;;
20758;SDS011;10539;53.686;9.158;2022-12-18T09:05:58;20.27;;;9.37;;
20758;SDS011;10539;53.686;9.158;2022-12-18T09:08:25;16.70;;;8.43;;
20758;SDS011;10539;53.686;9.158;2022-12-18T09:10:51;18.53;;;9.73;;
20758;SDS011;10539;53.686;9.158;2022-12-18T09:13:17;22.77;;;8.67;;
20758;SDS011;10539;53.686;9.158;2022-12-18T09:15:50;14.00;;;6.73;;
20758;SDS011;10539;53.686;9.158;2022-12-18T09:18:18;11.00;;;6.07;;
20758;SDS011;10539;53.686;9.158;2022-12-18T09:20:45;17.53;;;7.70;;
20758;SDS011;10539;53.686;9.158;2022-12-18T09:23:11;18.17;;;7.60;;
20758;SDS011;10539;53.686;9.158;2022-12-18T09:25:37;14.27;;;7.63;;
20758;SDS011;10539;53.686;9.158;2022-12-18T09:28:06;13.93;;;5.57;;
20758;SDS011;10539;53.686;9.158;2022-12-18T09:30:39;16.43;;;8.10;;
20758;SDS011;10539;53.686;9.158;2022-12-18T09:33:14;18.50;;;7.93;;
20758;SDS011;10539;53.686;9.158;2022-12-18T09:35:42;21.23;;;8.87;;
20758;SDS011;10539;53.686;9.158;2022-12-18T09:38:11;23.77;;;8.43;;
20758;SDS011;10539;53.686;9.158;2022-12-18T09:40:42;17.67;;;7.63;;
20758;SDS011;10539;53.686;9.158;2022-12-18T09:43:20;22.23;;;9.43;;
20758;SDS011;10539;53.686;9.158;2022-12-18T09:45:59;16.03;;;6.83;;
20758;SDS011;10539;53.686;9.158;2022-12-18T09:48:31;13.93;;;7.40;;
20758;SDS011;10539;53.686;9.158;2022-12-18T09:51:19;10.90;;;5.67;;
20758;SDS011;10539;53.686;9.158;2022-12-18T09:53:53;19.20;;;8.53;;
20758;SDS011;10539;53.686;9.158;2022-12-18T09:56:23;13.60;;;6.83;;
20758;SDS011;10539;53.686;9.158;2022-12-18T09:58:55;11.97;;;6.00;;
20758;SDS011;10539;53.686;9.158;2022-12-18T10:01:25;12.33;;;6.50;;
20758;SDS011;10539;53.686;9.158;2022-12-18T10:03:52;14.37;;;6.90;;
20758;SDS011;10539;53.686;9.158;2022-12-18T10:09:05;15.60;;;7.67;;
20758;SDS011;10539;53.686;9.158;2022-12-18T10:17:00;15.83;;;6.87;;
20758;SDS011;10539;53.686;9.158;2022-12-18T10:19:39;14.77;;;7.00;;
20758;SDS011;10539;53.686;9.158;2022-12-18T10:25:21;16.27;;;7.40;;
20758;SDS011;10539;53.686;9.158;2022-12-18T10:28:00;15.00;;;7.57;;
20758;SDS011;10539;53.686;9.158;2022-12-18T10:30:35;17.07;;;8.00;;
20758;SDS011;10539;53.686;9.158;2022-12-18T10:33:04;14.27;;;6.67;;
20758;SDS011;10539;53.686;9.158;2022-12-18T10:35:30;14.23;;;7.77;;
20758;SDS011;10539;53.686;9.158;2022-12-18T10:40:49;16.93;;;7.50;;
20758;SDS011;10539;53.686;9.158;2022-12-18T10:43:32;17.73;;;8.83;;
20758;SDS011;10539;53.686;9.158;2022-12-18T10:46:04;13.90;;;7.13;;
20758;SDS011;10539;53.686;9.158;2022-12-18T10:48:31;13.20;;;6.57;;
20758;SDS011;10539;53.686;9.158;2022-12-18T10:51:23;11.10;;;6.03;;
20758;SDS011;10539;53.686;9.158;2022-12-18T10:53:56;11.53;;;6.37;;
20758;SDS011;10539;53.686;9.158;2022-12-18T10:56:27;18.50;;;8.00;;
20758;SDS011;10539;53.686;9.158;2022-12-18T10:58:58;11.00;;;5.13;;
20758;SDS011;10539;53.686;9.158;2022-12-18T11:01:44;15.53;;;6.63;;
20758;SDS011;10539;53.686;9.158;2022-12-18T11:04:13;15.33;;;7.60;;
20758;SDS011;10539;53.686;9.158;2022-12-18T11:07:16;15.67;;;8.17;;
20758;SDS011;10539;53.686;9.158;2022-12-18T11:09:36;15.10;;;7.17;;
20758;SDS011;10539;53.686;9.158;2022-12-18T11:12:18;14.37;;;6.63;;
20758;SDS011;10539;53.686;9.158;2022-12-18T11:14:49;16.47;;;7.50;;
20758;SDS011;10539;53.686;9.158;2022-12-18T11:19:52;11.90;;;6.57;;
20758;SDS011;10539;53.686;9.158;2022-12-18T11:22:26;13.40;;;6.57;;
20758;SDS011;10539;53.686;9.158;2022-12-18T11:25:06;14.87;;;6.93;;
20758;SDS011;10539;53.686;9.158;2022-12-18T11:27:40;18.60;;;8.00;;
20758;SDS011;10539;53.686;9.158;2022-12-18T11:30:28;12.67;;;6.37;;
20758;SDS011;10539;53.686;9.158;2022-12-18T11:36:00;9.83;;;5.97;;
20758;SDS011;10539;53.686;9.158;2022-12-18T11:38:35;11.63;;;6.57;;
20758;SDS011;10539;53.686;9.158;2022-12-18T11:43:44;15.63;;;6.77;;
20758;SDS011;10539;53.686;9.158;2022-12-18T11:46:36;13.07;;;7.23;;
20758;SDS011;10539;53.686;9.158;2022-12-18T11:51:55;14.30;;;7.37;;
20758;SDS011;10539;53.686;9.158;2022-12-18T11:54:45;13.13;;;6.87;;
20758;SDS011;10539;53.686;9.158;2022-12-18T12:05:28;17.97;;;7.53;;
20758;SDS011;10539;53.686;9.158;2022-12-18T12:11:27;13.83;;;7.57;;
20758;SDS011;10539;53.686;9.158;2022-12-18T12:16:51;14.40;;;7.77;;
20758;SDS011;10539;53.686;9.158;2022-12-18T12:19:39;11.97;;;6.57;;
20758;SDS011;10539;53.686;9.158;2022-12-18T12:22:19;15.23;;;6.90;;
20758;SDS011;10539;53.686;9.158;2022-12-18T12:30:21;12.17;;;6.40;;
20758;SDS011;10539;53.686;9.158;2022-12-18T12:38:37;16.17;;;6.07;;
20758;SDS011;10539;53.686;9.158;2022-12-18T12:41:12;14.70;;;6.23;;
20758;SDS011;10539;53.686;9.158;2022-12-18T12:43:59;12.33;;;5.83;;
20758;SDS011;10539;53.686;9.158;2022-12-18T12:46:31;10.10;;;5.67;;
20758;SDS011;10539;53.686;9.158;2022-12-18T12:49:02;12.57;;;6.80;;
20758;SDS011;10539;53.686;9.158;2022-12-18T12:51:38;12.67;;;6.77;;
20758;SDS011;10539;53.686;9.158;2022-12-18T12:54:11;14.77;;;6.93;;
20758;SDS011;10539;53.686;9.158;2022-12-18T12:56:56;12.73;;;6.03;;
20758;SDS011;10539;53.686;9.158;2022-12-18T13:05:20;14.97;;;6.83;;
20758;SDS011;10539;53.686;9.158;2022-12-18T13:08:03;12.27;;;6.40;;
20758;SDS011;10539;53.686;9.158;2022-12-18T13:10:34;18.10;;;7.27;;
20758;SDS011;10539;53.686;9.158;2022-12-18T13:13:05;13.90;;;6.33;;
20758;SDS011;10539;53.686;9.158;2022-12-18T13:15:41;12.77;;;5.37;;
20758;SDS011;10539;53.686;9.158;2022-12-18T13:20:38;12.80;;;6.70;;
20758;SDS011;10539;53.686;9.158;2022-12-18T13:25:51;13.27;;;6.10;;
20758;SDS011;10539;53.686;9.158;2022-12-18T13:31:10;13.17;;;7.27;;
20758;SDS011;10539;53.686;9.158;2022-12-18T13:33:43;13.23;;;6.33;;
20758;SDS011;10539;53.686;9.158;2022-12-18T13:36:43;15.73;;;6.87;;
20758;SDS011;10539;53.686;9.158;2022-12-18T13:39:10;12.97;;;6.57;;
20758;SDS011;10539;53.686;9.158;2022-12-18T13:41:39;13.70;;;7.07;;
20758;SDS011;10539;53.686;9.158;2022-12-18T13:46:58;10.87;;;6.63;;
20758;SDS011;10539;53.686;9.158;2022-12-18T13:49:26;11.23;;;4.60;;
20758;SDS011;10539;53.686;9.158;2022-12-18T13:52:13;16.70;;;6.50;;
20758;SDS011;10539;53.686;9.158;2022-12-18T13:54:42;13.27;;;6.20;;
20758;SDS011;10539;53.686;9.158;2022-12-18T13:57:31;14.13;;;6.73;;
20758;SDS011;10539;53.686;9.158;2022-12-18T14:02:46;15.30;;;6.13;;
20758;SDS011;10539;53.686;9.158;2022-12-18T14:07:48;11.40;;;6.27;;
20758;SDS011;10539;53.686;9.158;2022-12-18T14:10:15;14.27;;;6.17;;
20758;SDS011;10539;53.686;9.158;2022-12-18T14:12:44;15.20;;;7.73;;
20758;SDS011;10539;53.686;9.158;2022-12-18T14:20:29;12.33;;;6.10;;
20758;SDS011;10539;53.686;9.158;2022-12-18T14:22:58;12.10;;;6.30;;
20758;SDS011;10539;53.686;9.158;2022-12-18T14:25:26;12.77;;;6.17;;
20758;SDS011;10539;53.686;9.158;2022-12-18T14:28:07;12.57;;;6.73;;
20758;SDS011;10539;53.686;9.158;2022-12-18T14:30:44;15.37;;;6.93;;
20758;SDS011;10539;53.686;9.158;2022-12-18T14:33:12;15.53;;;6.80;;
20758;SDS011;10539;53.686;9.158;2022-12-18T14:35:42;13.77;;;6.60;;
20758;SDS011;10539;53.686;9.158;2022-12-18T14:40:59;8.53;;;4.70;;
20758;SDS011;10539;53.686;9.158;2022-12-18T14:43:27;11.63;;;5.93;;
20758;SDS011;10539;53.686;9.158;2022-12-18T14:45:56;12.77;;;6.10;;
20758;SDS011;10539;53.686;9.158;2022-12-18T14:48:42;10.33;;;5.20;;
20758;SDS011;10539;53.686;9.158;2022-12-18T14:58:49;14.77;;;5.60;;
20758;SDS011;10539;53.686;9.158;2022-12-18T15:01:37;11.57;;;5.87;;
20758;SDS011;10539;53.686;9.158;2022-12-18T15:07:02;14.57;;;6.33;;
20758;SDS011;10539;53.686;9.158;2022-12-18T15:09:34;14.50;;;6.07;;
20758;SDS011;10539;53.686;9.158;2022-12-18T15:12:00;9.97;;;5.40;;
20758;SDS011;10539;53.686;9.158;2022-12-18T15:16:55;13.00;;;6.43;;
20758;SDS011;10539;53.686;9.158;2022-12-18T15:19:31;11.73;;;5.00;;
20758;SDS011;10539;53.686;9.158;2022-12-18T15:22:04;12.57;;;5.80;;
20758;SDS011;10539;53.686;9.158;2022-12-18T15:24:30;10.43;;;5.13;;
20758;SDS011;10539;53.686;9.158;2022-12-18T15:26:58;10.30;;;5.63;;
20758;SDS011;10539;53.686;9.158;2022-12-18T15:29:25;13.50;;;5.53;;
20758;SDS011;10539;53.686;9.158;2022-12-18T15:32:01;12.37;;;6.00;;
20758;SDS011;10539;53.686;9.158;2022-12-18T15:34:29;12.00;;;5.00;;
20758;SDS011;10539;53.686;9.158;2022-12-18T15:36:56;9.07;;;4.57;;
20758;SDS011;10539;53.686;9.158;2022-12-18T15:39:22;9.63;;;4.73;;
20758;SDS011;10539;53.686;9.158;2022-12-18T15:41:48;7.27;;;4.57;;
20758;SDS011;10539;53.686;9.158;2022-12-18T15:44:33;9.43;;;4.57;;
20758;SDS011;10539;53.686;9.158;2022-12-18T15:46:59;11.23;;;5.27;;
20758;SDS011;10539;53.686;9.158;2022-12-18T15:49:24;7.03;;;4.53;;
20758;SDS011;10539;53.686;9.158;2022-12-18T15:51:54;8.43;;;4.60;;
20758;SDS011;10539;53.686;9.158;2022-12-18T15:54:23;12.03;;;5.20;;
20758;SDS011;10539;53.686;9.158;2022-12-18T15:57:10;15.17;;;4.03;;
20758;SDS011;10539;53.686;9.158;2022-12-18T15:59:49;10.00;;;4.50;;
20758;SDS011;10539;53.686;9.158;2022-12-18T16:02:17;12.37;;;4.93;;
20758;SDS011;10539;53.686;9.158;2022-12-18T16:04:44;8.80;;;4.37;;
20758;SDS011;10539;53.686;9.158;2022-12-18T16:07:11;8.83;;;4.60;;
20758;SDS011;10539;53.686;9.158;2022-12-18T16:09:37;8.20;;;4.50;;
20758;SDS011;10539;53.686;9.158;2022-12-18T16:12:04;10.20;;;4.37;;
20758;SDS011;10539;53.686;9.158;2022-12-18T16:14:31;13.93;;;5.77;;
20758;SDS011;10539;53.686;9.158;2022-12-18T16:17:01;8.63;;;4.73;;
20758;SDS011;10539;53.686;9.158;2022-12-18T16:19:28;9.83;;;4.80;;
20758;SDS011;10539;53.686;9.158;2022-12-18T16:21:55;11.73;;;5.53;;
20758;SDS011;10539;53.686;9.158;2022-12-18T16:24:23;8.57;;;4.50;;
20758;SDS011;10539;53.686;9.158;2022-12-18T16:26:51;10.90;;;5.37;;
20758;SDS011;10539;53.686;9.158;2022-12-18T16:29:18;9.60;;;4.47;;
20758;SDS011;10539;53.686;9.158;2022-12-18T16:31:44;11.20;;;5.70;;
20758;SDS011;10539;53.686;9.158;2022-12-18T16:34:15;13.17;;;6.03;;
20758;SDS011;10539;53.686;9.158;2022-12-18T16:36:43;8.90;;;4.17;;
20758;SDS011;10539;53.686;9.158;2022-12-18T16:39:09;13.47;;;6.67;;
20758;SDS011;10539;53.686;9.158;2022-12-18T16:41:35;16.10;;;6.00;;
20758;SDS011;10539;53.686;9.158;2022-12-18T16:44:01;13.33;;;6.20;;
20758;SDS011;10539;53.686;9.158;2022-12-18T16:46:27;14.80;;;6.77;;